Time;durP1;ratioP1;P1;durP2;ratioP2;P2;SDS_P1;SDS_P2;PMS_P1;PMS_P2;Temp;Humidity;BMP_temperature;BMP_pressure;BME280_temperature;BME280_humidity;BME280_pressure;Samples;Min_cycle;Max_cycle;Signal;HPM_P1;HPM_P2
2022/09/05 00:00:51;;;;;;;;;;;18.30;99.90;;;;;;5076251;28;19937;-57
2022/09/05 00:03:27;;;;;;;;;;;18.30;99.90;;;;;;5075158;28;19924;-58
2022/09/05 00:06:12;;;;;;;;;;;18.30;99.90;;;;;;5086677;28;19935;-55
2022/09/05 00:08:49;;;;;;;;;;;18.30;99.90;;;;;;5082234;28;19924;-55
2022/09/05 00:11:29;;;;;;;;;;;18.30;99.90;;;;;;5071651;28;19968;-54
2022/09/05 00:14:28;;;;;;;;;;;18.30;99.90;;;;;;5086330;28;19928;-55
2022/09/05 00:17:28;;;;;;;;;;;18.30;99.90;;;;;;5076084;28;19924;-54
2022/09/05 00:20:21;;;;;;;;;;;18.30;99.90;;;;;;5084023;28;20376;-56
2022/09/05 00:23:09;;;;;;;;;;;18.40;99.90;;;;;;5076870;28;19927;-57
2022/09/05 00:26:16;;;;;;;;;;;18.30;99.90;;;;;;5077554;28;19932;-63
2022/09/05 00:28:52;;;;;;;;;;;18.10;99.90;;;;;;5085500;28;19929;-60
2022/09/05 00:31:38;;;;;;;;;;;17.80;99.90;;;;;;5071318;28;19924;-58
2022/09/05 00:34:27;;;;;;;;;;;17.60;99.90;;;;;;5095821;28;19931;-57
2022/09/05 00:37:25;;;;;;;;;;;17.30;99.90;;;;;;5077316;28;19924;-57
2022/09/05 00:39:56;;;;;;;;;;;17.10;99.90;;;;;;5071903;28;19958;-57
2022/09/05 00:42:44;;;;;;;;;;;16.90;99.90;;;;;;5071957;28;19932;-56
2022/09/05 00:45:15;;;;;;;;;;;16.70;99.90;;;;;;5086357;28;19928;-56
2022/09/05 00:47:51;;;;;;;;;;;16.50;99.90;;;;;;5074262;28;19923;-56
2022/09/05 00:50:24;;;;;;;;;;;16.40;99.90;;;;;;5084001;28;19929;-56
2022/09/05 00:52:56;;;;;;;;;;;16.40;99.90;;;;;;5075316;28;20307;-56
2022/09/05 00:55:46;;;;;;;;;;;16.30;99.90;;;;;;5080970;28;19936;-55
2022/09/05 00:58:34;;;;;;;;;;;16.30;99.90;;;;;;5085321;28;19925;-55
2022/09/05 01:01:06;;;;;;;;;;;16.20;99.90;;;;;;5082117;28;19928;-56
2022/09/05 01:04:03;;;;;;;;;;;16.20;99.90;;;;;;5076944;28;19931;-55
2022/09/05 01:06:41;;;;;;;;;;;16.20;99.90;;;;;;5072411;28;20367;-56
2022/09/05 01:09:27;;;;;;;;;;;16.20;99.90;;;;;;5081163;28;20512;-56
2022/09/05 01:11:57;;;;;;;;;;;16.20;99.90;;;;;;5067642;28;19935;-56
2022/09/05 01:14:34;;;;;;;;;;;16.20;99.90;;;;;;5077943;28;19924;-56
2022/09/05 01:17:07;;;;;;;;;;;16.20;99.90;;;;;;5068675;28;19929;-56
2022/09/05 01:19:43;;;;;;;;;;;16.30;99.90;;;;;;5080038;28;19928;-56
2022/09/05 01:22:14;;;;;;;;;;;16.30;99.90;;;;;;5068426;28;19932;-56
2022/09/05 01:24:59;;;;;;;;;;;16.20;99.90;;;;;;5089653;28;19925;-56
2022/09/05 01:27:30;;;;;;;;;;;16.20;99.90;;;;;;5078709;28;19935;-56
2022/09/05 01:30:22;;;;;;;;;;;16.20;99.90;;;;;;5068109;28;19955;-56
2022/09/05 01:33:16;;;;;;;;;;;16.10;99.90;;;;;;5074301;28;20399;-56
2022/09/05 01:35:52;;;;;;;;;;;16.10;99.90;;;;;;5076515;28;20284;-56
2022/09/05 01:38:35;;;;;;;;;;;16.10;99.90;;;;;;5076547;28;20272;-55
2022/09/05 01:41:20;;;;;;;;;;;16.10;99.90;;;;;;5069828;28;19924;-56
2022/09/05 01:44:27;;;;;;;;;;;16.10;99.90;;;;;;5075252;28;19931;-56
2022/09/05 01:47:08;;;;;;;;;;;16.10;99.90;;;;;;5046526;28;19924;-56
2022/09/05 01:49:47;;;;;;;;;;;16.10;99.90;;;;;;5053735;28;20351;-56
2022/09/05 01:52:19;;;;;;;;;;;16.10;99.90;;;;;;5075339;28;19924;-56
2022/09/05 01:55:06;;;;;;;;;;;16.10;99.90;;;;;;5088120;28;19925;-56
2022/09/05 01:57:59;;;;;;;;;;;16.10;99.90;;;;;;5082162;28;19931;-56
2022/09/05 02:00:38;;;;;;;;;;;16.10;99.90;;;;;;5075809;28;20287;-56
2022/09/05 02:03:09;;;;;;;;;;;16.10;99.90;;;;;;5087769;28;19924;-56
2022/09/05 02:05:50;;;;;;;;;;;16.00;99.90;;;;;;5085884;28;19932;-56
2022/09/05 02:08:18;;;;;;;;;;;16.00;99.90;;;;;;5086340;28;19924;-56
2022/09/05 02:11:08;;;;;;;;;;;16.00;99.90;;;;;;5070317;28;20387;-55
2022/09/05 02:13:36;;;;;;;;;;;16.00;99.90;;;;;;5064904;28;19925;-56
2022/09/05 02:16:11;;;;;;;;;;;16.00;99.90;;;;;;5076737;28;19925;-56
2022/09/05 02:18:52;;;;;;;;;;;16.00;99.90;;;;;;5079257;28;19936;-56
2022/09/05 02:21:42;;;;;;;;;;;16.00;99.90;;;;;;5075586;28;20303;-56
2022/09/05 02:24:26;;;;;;;;;;;16.00;99.90;;;;;;5079169;28;19924;-56
2022/09/05 02:26:56;;;;;;;;;;;16.00;99.90;;;;;;5084363;28;19925;-56
2022/09/05 02:29:24;;;;;;;;;;;16.00;99.90;;;;;;5084750;28;19928;-59
2022/09/05 02:32:16;;;;;;;;;;;15.90;99.90;;;;;;5073564;28;19931;-55
2022/09/05 02:34:49;;;;;;;;;;;16.00;99.90;;;;;;5083548;28;19924;-56
2022/09/05 02:37:36;;;;;;;;;;;15.90;99.90;;;;;;5090009;28;19924;-56
2022/09/05 02:40:26;;;;;;;;;;;15.90;99.90;;;;;;5076027;28;19925;-56
2022/09/05 02:43:17;;;;;;;;;;;15.90;99.90;;;;;;5091414;28;20446;-56
2022/09/05 02:46:07;;;;;;;;;;;15.90;99.90;;;;;;5077065;28;20391;-56
2022/09/05 02:48:41;;;;;;;;;;;15.90;99.90;;;;;;5072322;28;19947;-55
2022/09/05 02:51:41;;;;;;;;;;;15.90;99.90;;;;;;5073349;28;20292;-56
2022/09/05 02:54:30;;;;;;;;;;;15.90;99.90;;;;;;5063519;28;20391;-56
2022/09/05 02:57:36;;;;;;;;;;;16.00;99.90;;;;;;5077815;28;19932;-55
2022/09/05 03:00:27;;;;;;;;;;;15.90;99.90;;;;;;5072026;28;19928;-56
2022/09/05 03:03:13;;;;;;;;;;;16.00;99.90;;;;;;5072331;28;20503;-56
2022/09/05 03:05:41;;;;;;;;;;;16.00;99.90;;;;;;5077024;28;19935;-56
2022/09/05 03:08:27;;;;;;;;;;;15.90;99.90;;;;;;5072203;28;19936;-56
2022/09/05 03:11:13;;;;;;;;;;;15.90;99.90;;;;;;5072574;28;20391;-55
2022/09/05 03:13:59;;;;;;;;;;;15.80;99.90;;;;;;5072546;28;19932;-56
2022/09/05 03:16:45;;;;;;;;;;;15.80;99.90;;;;;;5083526;28;19932;-56
2022/09/05 03:19:32;;;;;;;;;;;15.80;99.90;;;;;;5073407;28;20418;-56
2022/09/05 03:22:24;;;;;;;;;;;15.70;99.90;;;;;;5071974;28;19931;-56
2022/09/05 03:25:17;;;;;;;;;;;15.80;99.90;;;;;;5072156;28;19932;-56
2022/09/05 03:28:03;;;;;;;;;;;15.80;99.90;;;;;;5077069;28;19928;-56
2022/09/05 03:30:33;;;;;;;;;;;15.80;99.90;;;;;;5075753;28;20299;-56
2022/09/05 03:33:21;;;;;;;;;;;15.90;99.90;;;;;;5071587;28;20394;-56
2022/09/05 03:35:57;;;;;;;;;;;15.90;99.90;;;;;;5070142;28;19931;-56
2022/09/05 03:38:30;;;;;;;;;;;15.90;99.90;;;;;;5070794;28;20460;-56
2022/09/05 03:41:07;;;;;;;;;;;15.80;99.90;;;;;;5071696;28;19924;-56
2022/09/05 03:43:53;;;;;;;;;;;15.80;99.90;;;;;;5071983;28;19925;-56
2022/09/05 03:46:39;;;;;;;;;;;15.80;99.90;;;;;;5090736;28;19947;-56
2022/09/05 03:49:09;;;;;;;;;;;15.80;99.90;;;;;;5087666;28;19931;-56
2022/09/05 03:52:15;;;;;;;;;;;15.70;99.90;;;;;;5072098;28;19924;-56
2022/09/05 03:55:03;;;;;;;;;;;15.60;99.90;;;;;;5078181;28;19932;-56
2022/09/05 03:58:09;;;;;;;;;;;15.60;99.90;;;;;;5091033;28;19924;-56
2022/09/05 04:01:02;;;;;;;;;;;15.60;99.90;;;;;;5076310;28;19924;-56
2022/09/05 04:03:52;;;;;;;;;;;15.50;99.90;;;;;;5074056;28;19936;-56
2022/09/05 04:06:46;;;;;;;;;;;15.60;99.90;;;;;;5075552;28;19939;-56
2022/09/05 04:09:39;;;;;;;;;;;15.60;99.90;;;;;;5075662;28;19924;-56
2022/09/05 04:12:21;;;;;;;;;;;15.60;99.90;;;;;;5077086;28;19924;-56
2022/09/05 04:14:51;;;;;;;;;;;15.60;99.90;;;;;;5075083;28;20376;-56
2022/09/05 04:17:37;;;;;;;;;;;15.70;99.90;;;;;;5075200;28;19931;-56
2022/09/05 04:20:08;;;;;;;;;;;15.70;99.90;;;;;;5075350;28;20307;-57
2022/09/05 04:22:54;;;;;;;;;;;15.70;99.90;;;;;;5075513;28;19925;-56
2022/09/05 04:25:38;;;;;;;;;;;15.70;99.90;;;;;;5075650;28;20372;-56
2022/09/05 04:28:20;;;;;;;;;;;15.60;99.90;;;;;;5097779;28;19933;-56
2022/09/05 04:30:53;;;;;;;;;;;15.60;99.90;;;;;;5083883;28;19924;-56
2022/09/05 04:33:23;;;;;;;;;;;15.50;99.90;;;;;;5095549;28;19924;-57
2022/09/05 04:36:08;;;;;;;;;;;15.50;99.90;;;;;;5080973;28;19928;-56
2022/09/05 04:38:45;;;;;;;;;;;15.40;99.90;;;;;;5092773;28;19925;-55
2022/09/05 04:41:12;;;;;;;;;;;15.40;99.90;;;;;;5075861;28;19939;-56
2022/09/05 04:43:51;;;;;;;;;;;15.40;99.90;;;;;;5073241;28;19932;-56
2022/09/05 04:46:21;;;;;;;;;;;15.30;99.90;;;;;;5075059;28;19932;-56
2022/09/05 04:48:55;;;;;;;;;;;15.30;99.90;;;;;;5072945;28;19932;-56
2022/09/05 04:51:41;;;;;;;;;;;15.30;99.90;;;;;;5072224;28;19924;-56
2022/09/05 04:54:17;;;;;;;;;;;15.20;99.90;;;;;;5081486;28;19928;-56
2022/09/05 04:56:47;;;;;;;;;;;15.20;99.90;;;;;;5071260;28;19943;-56
2022/09/05 04:59:30;;;;;;;;;;;15.10;99.90;;;;;;5081563;28;19948;-56
2022/09/05 05:02:26;;;;;;;;;;;15.10;99.90;;;;;;5070086;28;19928;-57
2022/09/05 05:05:33;;;;;;;;;;;15.10;99.90;;;;;;5071663;28;20423;-56
2022/09/05 05:08:33;;;;;;;;;;;15.00;99.90;;;;;;5074844;28;20410;-56
2022/09/05 05:11:17;;;;;;;;;;;14.90;99.90;;;;;;5076020;28;19928;-56
2022/09/05 05:14:08;;;;;;;;;;;14.90;99.90;;;;;;5083954;28;19940;-57
2022/09/05 05:16:59;;;;;;;;;;;14.90;99.90;;;;;;5100544;28;20383;-56
2022/09/05 05:19:49;;;;;;;;;;;14.80;99.90;;;;;;5075980;28;19924;-58
2022/09/05 05:22:45;;;;;;;;;;;14.90;99.90;;;;;;5079152;28;19924;-57
2022/09/05 05:25:13;;;;;;;;;;;14.80;99.90;;;;;;5078647;28;19924;-56
2022/09/05 05:27:53;;;;;;;;;;;14.80;99.90;;;;;;5076116;28;20284;-56
2022/09/05 05:30:26;;;;;;;;;;;14.80;99.90;;;;;;5068585;28;19932;-56
2022/09/05 05:32:54;;;;;;;;;;;14.80;99.90;;;;;;5078495;28;19955;-56
2022/09/05 05:35:27;;;;;;;;;;;14.80;99.90;;;;;;5072929;28;19925;-56
2022/09/05 05:38:12;;;;;;;;;;;14.70;99.90;;;;;;5076096;28;19931;-56
2022/09/05 05:40:45;;;;;;;;;;;14.70;99.90;;;;;;5079717;28;19925;-56
2022/09/05 05:43:25;;;;;;;;;;;14.70;99.90;;;;;;5090852;28;19928;-57
2022/09/05 05:45:57;;;;;;;;;;;14.70;99.90;;;;;;5075552;28;19924;-56
2022/09/05 05:48:38;;;;;;;;;;;14.70;99.90;;;;;;5077026;28;19925;-56
2022/09/05 05:51:12;;;;;;;;;;;14.70;99.90;;;;;;5074949;28;19924;-56
2022/09/05 05:53:58;;;;;;;;;;;14.70;99.90;;;;;;5083705;28;19928;-56
2022/09/05 05:56:28;;;;;;;;;;;14.80;99.90;;;;;;5074144;28;20291;-57
2022/09/05 05:59:15;;;;;;;;;;;14.80;99.90;;;;;;5098248;28;20286;-56
2022/09/05 06:01:45;;;;;;;;;;;14.80;99.90;;;;;;5073008;28;19939;-56
2022/09/05 06:04:28;;;;;;;;;;;14.90;99.90;;;;;;5092157;28;19931;-56
2022/09/05 06:07:14;;;;;;;;;;;14.90;99.90;;;;;;5071902;28;19924;-56
2022/09/05 06:09:42;;;;;;;;;;;15.00;99.90;;;;;;5078927;28;19924;-57
2022/09/05 06:13:01;;;;;;;;;;;15.00;99.90;;;;;;5068010;28;19924;-56
2022/09/05 06:16:06;;;;;;;;;;;15.00;99.90;;;;;;5070144;28;19951;-57
2022/09/05 06:18:43;;;;;;;;;;;15.10;99.90;;;;;;5075879;28;19925;-57
2022/09/05 06:21:14;;;;;;;;;;;15.10;99.90;;;;;;5069941;28;19925;-57
2022/09/05 06:24:08;;;;;;;;;;;15.10;99.90;;;;;;5095795;28;19933;-57
2022/09/05 06:26:54;;;;;;;;;;;15.20;99.90;;;;;;5070772;28;19936;-57
2022/09/05 06:29:41;;;;;;;;;;;15.20;99.90;;;;;;5072226;28;19929;-57
2022/09/05 06:32:13;;;;;;;;;;;15.30;99.90;;;;;;5077856;28;20294;-57
2022/09/05 06:34:59;;;;;;;;;;;15.30;99.90;;;;;;5087630;28;19925;-57
2022/09/05 06:37:26;;;;;;;;;;;15.30;99.90;;;;;;5076082;28;19932;-57
2022/09/05 06:40:15;;;;;;;;;;;15.30;99.90;;;;;;5070094;28;19931;-57
2022/09/05 06:43:02;;;;;;;;;;;15.30;99.90;;;;;;5074255;28;19924;-57
2022/09/05 06:45:30;;;;;;;;;;;15.20;99.90;;;;;;5076301;28;19931;-57
2022/09/05 06:48:03;;;;;;;;;;;15.30;99.90;;;;;;5086113;28;19953;-57
2022/09/05 06:50:49;;;;;;;;;;;15.30;99.90;;;;;;5069773;28;19925;-58
2022/09/05 06:53:36;;;;;;;;;;;15.30;99.90;;;;;;5082012;28;20818;-57
2022/09/05 06:56:07;;;;;;;;;;;15.50;99.90;;;;;;5073621;28;20407;-57
2022/09/05 06:58:54;;;;;;;;;;;15.50;99.90;;;;;;5084676;28;20403;-57
2022/09/05 07:01:26;;;;;;;;;;;15.60;99.90;;;;;;5068725;28;19932;-57
2022/09/05 07:04:26;;;;;;;;;;;15.70;99.90;;;;;;5084001;28;20380;-57
2022/09/05 07:07:18;;;;;;;;;;;15.80;99.90;;;;;;5068727;28;19925;-57
2022/09/05 07:09:52;;;;;;;;;;;15.90;99.90;;;;;;5076329;28;19927;-57
2022/09/05 07:12:20;;;;;;;;;;;16.00;99.90;;;;;;5071904;28;19928;-57
2022/09/05 07:15:07;;;;;;;;;;;16.10;99.90;;;;;;5072797;28;19925;-58
2022/09/05 07:17:39;;;;;;;;;;;16.10;99.90;;;;;;5083366;28;19931;-58
2022/09/05 07:20:34;;;;;;;;;;;16.20;99.90;;;;;;5072042;28;19933;-57
2022/09/05 07:23:41;;;;;;;;;;;16.20;99.90;;;;;;5071354;28;19925;-57
2022/09/05 07:26:31;;;;;;;;;;;16.20;99.90;;;;;;5068501;28;19929;-57
2022/09/05 07:29:21;;;;;;;;;;;16.30;99.90;;;;;;5073946;28;19929;-57
2022/09/05 07:31:54;;;;;;;;;;;16.40;99.90;;;;;;5069346;28;19928;-57
2022/09/05 07:34:25;;;;;;;;;;;16.50;99.90;;;;;;5079830;28;19924;-58
2022/09/05 07:36:54;;;;;;;;;;;16.50;99.90;;;;;;5068867;28;20292;-57
2022/09/05 07:39:49;;;;;;;;;;;16.60;99.90;;;;;;5067080;28;19935;-58
2022/09/05 07:42:20;;;;;;;;;;;16.70;99.90;;;;;;5071898;28;19931;-58
2022/09/05 07:44:57;;;;;;;;;;;16.70;99.90;;;;;;5069028;28;20299;-58
2022/09/05 07:47:30;;;;;;;;;;;16.80;99.90;;;;;;5081636;28;19927;-59
2022/09/05 07:50:00;;;;;;;;;;;16.80;99.90;;;;;;5089789;28;20461;-58
2022/09/05 07:52:54;;;;;;;;;;;16.80;99.90;;;;;;5095994;28;20326;-58
2022/09/05 07:55:41;;;;;;;;;;;16.90;99.90;;;;;;5098046;28;19925;-58
2022/09/05 07:58:34;;;;;;;;;;;16.90;99.90;;;;;;5083734;28;19924;-58
2022/09/05 08:01:01;;;;;;;;;;;16.90;99.90;;;;;;5069548;28;19936;-58
2022/09/05 08:03:29;;;;;;;;;;;17.00;99.90;;;;;;5079962;28;19931;-57
2022/09/05 08:06:00;;;;;;;;;;;17.10;99.90;;;;;;5083306;28;19935;-58
2022/09/05 08:08:37;;;;;;;;;;;17.10;99.90;;;;;;5073256;28;20307;-57
2022/09/05 08:11:08;;;;;;;;;;;17.20;99.90;;;;;;5067802;28;20287;-57
2022/09/05 08:14:04;;;;;;;;;;;17.20;99.90;;;;;;5076481;28;19924;-57
2022/09/05 08:16:53;;;;;;;;;;;17.20;99.90;;;;;;5074957;28;19932;-57
2022/09/05 08:19:23;;;;;;;;;;;17.30;99.90;;;;;;5087016;28;19924;-57
2022/09/05 08:21:51;;;;;;;;;;;17.20;99.90;;;;;;5084795;28;19925;-58
2022/09/05 08:24:28;;;;;;;;;;;17.30;99.90;;;;;;5065058;28;19924;-58
2022/09/05 08:27:14;;;;;;;;;;;17.30;99.90;;;;;;5069749;28;20383;-59
2022/09/05 08:29:45;;;;;;;;;;;17.30;99.90;;;;;;5066864;28;19946;-58
2022/09/05 08:32:23;;;;;;;;;;;17.40;99.90;;;;;;5067510;28;19928;-58
2022/09/05 08:34:53;;;;;;;;;;;17.50;99.90;;;;;;5067899;28;19982;-58
2022/09/05 08:37:22;;;;;;;;;;;17.50;99.90;;;;;;5082435;28;19924;-59
2022/09/05 08:39:51;;;;;;;;;;;17.50;99.90;;;;;;5108486;28;19923;-58
2022/09/05 08:42:41;;;;;;;;;;;17.50;99.90;;;;;;5090888;28;19925;-58
2022/09/05 08:45:43;;;;;;;;;;;17.50;99.90;;;;;;5068185;28;19925;-58
2022/09/05 08:48:33;;;;;;;;;;;17.50;99.90;;;;;;5079128;28;19924;-58
2022/09/05 08:51:17;;;;;;;;;;;17.50;99.90;;;;;;5091095;28;19931;-58
2022/09/05 08:53:57;;;;;;;;;;;17.50;99.90;;;;;;5089792;28;19924;-58
2022/09/05 08:56:48;;;;;;;;;;;17.60;99.90;;;;;;5092059;28;19924;-58
2022/09/05 08:59:38;;;;;;;;;;;17.70;99.90;;;;;;5070524;28;19931;-58
2022/09/05 09:02:44;;;;;;;;;;;17.70;99.90;;;;;;5074917;28;19932;-59
2022/09/05 09:05:23;;;;;;;;;;;17.80;99.90;;;;;;5081638;28;19924;-59
2022/09/05 09:08:12;;;;;;;;;;;17.80;99.90;;;;;;5089168;28;19924;-58
2022/09/05 09:10:42;;;;;;;;;;;17.90;99.90;;;;;;5079115;28;19932;-58
2022/09/05 09:13:09;;;;;;;;;;;18.00;99.90;;;;;;5081735;28;19928;-58
2022/09/05 09:15:43;;;;;;;;;;;18.00;99.90;;;;;;5076090;28;19932;-58
2022/09/05 09:18:11;;;;;;;;;;;18.10;99.90;;;;;;5072498;28;19931;-58
2022/09/05 09:20:51;;;;;;;;;;;18.10;99.90;;;;;;5071040;28;19925;-58
2022/09/05 09:23:25;;;;;;;;;;;18.10;99.90;;;;;;5089900;28;19928;-58
2022/09/05 09:26:22;;;;;;;;;;;18.20;99.90;;;;;;5066815;28;20387;-58
2022/09/05 09:29:02;;;;;;;;;;;18.30;99.90;;;;;;5097151;28;19930;-59
2022/09/05 09:31:36;;;;;;;;;;;18.40;99.90;;;;;;5110451;28;19924;-59
2022/09/05 09:34:03;;;;;;;;;;;18.60;99.90;;;;;;5079032;28;19932;-58
2022/09/05 09:36:34;;;;;;;;;;;18.70;99.90;;;;;;5071211;28;19951;-59
2022/09/05 09:39:07;;;;;;;;;;;18.80;99.90;;;;;;5088328;28;19924;-58
2022/09/05 09:42:10;;;;;;;;;;;19.00;99.90;;;;;;5078254;28;20284;-58
2022/09/05 09:45:11;;;;;;;;;;;19.20;99.90;;;;;;5067635;28;19936;-58
2022/09/05 09:48:14;;;;;;;;;;;19.40;99.90;;;;;;5076381;28;19924;-58
2022/09/05 09:51:00;;;;;;;;;;;19.50;99.90;;;;;;5070479;28;19931;-59
2022/09/05 09:53:46;;;;;;;;;;;19.70;99.90;;;;;;5081778;28;19925;-58
2022/09/05 09:56:37;;;;;;;;;;;19.80;99.90;;;;;;5085377;28;20003;-59
2022/09/05 09:59:11;;;;;;;;;;;20.00;99.90;;;;;;5068490;28;19924;-58
2022/09/05 10:01:52;;;;;;;;;;;20.10;99.90;;;;;;5067624;28;19924;-58
2022/09/05 10:04:38;;;;;;;;;;;20.30;99.90;;;;;;5072774;28;19947;-58
2022/09/05 10:07:31;;;;;;;;;;;20.50;99.90;;;;;;5072042;28;20065;-58
2022/09/05 10:10:28;;;;;;;;;;;20.60;99.90;;;;;;5084577;28;19963;-58
2022/09/05 10:13:16;;;;;;;;;;;20.70;99.90;;;;;;5087008;28;19928;-59
2022/09/05 10:15:45;;;;;;;;;;;20.80;99.90;;;;;;5090368;28;19951;-59
2022/09/05 10:18:21;;;;;;;;;;;20.80;99.90;;;;;;5089790;28;20033;-58
2022/09/05 10:21:09;;;;;;;;;;;20.80;99.90;;;;;;5080667;28;19924;-59
2022/09/05 10:23:53;;;;;;;;;;;20.80;99.90;;;;;;5103151;28;20087;-58
2022/09/05 10:26:36;;;;;;;;;;;20.90;99.90;;;;;;5078030;28;19937;-59
2022/09/05 10:29:06;;;;;;;;;;;21.00;99.90;;;;;;5100305;28;19924;-59
2022/09/05 10:31:57;;;;;;;;;;;21.00;99.90;;;;;;5090124;28;19931;-58
2022/09/05 10:34:46;;;;;;;;;;;21.10;99.90;;;;;;5068777;28;19929;-59
2022/09/05 10:37:41;;;;;;;;;;;21.20;99.90;;;;;;5073166;28;19924;-58
2022/09/05 10:40:13;;;;;;;;;;;21.20;99.90;;;;;;5089119;28;19924;-58
2022/09/05 10:42:44;;;;;;;;;;;21.30;99.90;;;;;;5089326;28;19931;-58
2022/09/05 10:45:30;;;;;;;;;;;21.30;99.90;;;;;;5074004;28;19932;-60
2022/09/05 10:48:09;;;;;;;;;;;21.20;99.90;;;;;;5081467;28;20287;-59
2022/09/05 10:50:42;;;;;;;;;;;21.10;99.90;;;;;;5085291;28;19928;-59
2022/09/05 10:53:15;;;;;;;;;;;21.10;99.90;;;;;;5079477;28;19928;-60
2022/09/05 10:55:46;;;;;;;;;;;21.00;99.90;;;;;;5074815;28;20301;-60
2022/09/05 10:58:27;;;;;;;;;;;21.00;99.90;;;;;;5084563;28;19935;-60
2022/09/05 11:01:22;;;;;;;;;;;21.00;99.90;;;;;;5072408;28;19939;-59
2022/09/05 11:04:12;;;;;;;;;;;21.10;99.90;;;;;;5078557;28;20309;-58
2022/09/05 11:06:44;;;;;;;;;;;21.40;99.90;;;;;;5088268;28;19931;-58
2022/09/05 11:09:28;;;;;;;;;;;21.50;99.40;;;;;;5089372;28;20291;-59
2022/09/05 11:12:04;;;;;;;;;;;21.60;98.60;;;;;;5072214;28;19924;-58
2022/09/05 11:14:32;;;;;;;;;;;21.70;98.10;;;;;;5068695;28;19931;-60
2022/09/05 11:17:18;;;;;;;;;;;21.80;97.60;;;;;;5069366;28;19924;-61
2022/09/05 11:19:55;;;;;;;;;;;21.80;97.10;;;;;;5076072;28;19925;-61
2022/09/05 11:22:24;;;;;;;;;;;21.80;98.10;;;;;;5072413;28;20313;-60
2022/09/05 11:24:56;;;;;;;;;;;21.90;98.30;;;;;;5089091;28;20303;-61
2022/09/05 11:27:24;;;;;;;;;;;22.10;98.10;;;;;;5075044;28;20003;-60
2022/09/05 11:30:13;;;;;;;;;;;22.30;98.10;;;;;;5078464;28;19925;-60
2022/09/05 11:33:16;;;;;;;;;;;22.60;97.00;;;;;;5080436;28;19935;-58
2022/09/05 11:36:07;;;;;;;;;;;22.80;96.80;;;;;;5081942;28;20372;-61
2022/09/05 11:39:03;;;;;;;;;;;23.00;97.40;;;;;;5086366;28;19938;-61
2022/09/05 11:41:51;;;;;;;;;;;23.10;97.30;;;;;;5077813;28;19932;-59
2022/09/05 11:44:19;;;;;;;;;;;23.40;95.80;;;;;;5070789;28;19956;-62
2022/09/05 11:47:11;;;;;;;;;;;23.60;94.80;;;;;;5069992;28;19931;-62
2022/09/05 11:50:18;;;;;;;;;;;23.70;93.80;;;;;;5072967;28;20163;-61
2022/09/05 11:53:08;;;;;;;;;;;23.60;93.80;;;;;;5074570;28;19935;-60
2022/09/05 11:55:48;;;;;;;;;;;23.70;93.90;;;;;;5079081;28;20387;-59
2022/09/05 11:58:35;;;;;;;;;;;24.00;95.40;;;;;;5084345;28;19931;-59
2022/09/05 12:01:15;;;;;;;;;;;24.40;94.30;;;;;;5068484;28;19925;-59
2022/09/05 12:04:15;;;;;;;;;;;24.70;93.50;;;;;;5093259;28;19951;-59
2022/09/05 12:07:06;;;;;;;;;;;24.80;93.30;;;;;;5069501;28;19948;-60
2022/09/05 12:10:26;;;;;;;;;;;25.00;93.80;;;;;;5068444;28;19924;-61
2022/09/05 12:13:16;;;;;;;;;;;25.30;91.70;;;;;;5060326;28;20368;-59
2022/09/05 12:15:50;;;;;;;;;;;25.10;91.10;;;;;;5088615;28;20394;-62
2022/09/05 12:18:38;;;;;;;;;;;25.00;91.70;;;;;;5084120;28;19974;-60
2022/09/05 12:21:05;;;;;;;;;;;25.00;91.50;;;;;;5067518;28;19924;-62
2022/09/05 12:23:46;;;;;;;;;;;24.90;90.80;;;;;;5079230;28;19931;-58
2022/09/05 12:26:49;;;;;;;;;;;24.70;91.40;;;;;;5081735;28;19928;-60
2022/09/05 12:29:39;;;;;;;;;;;25.10;92.90;;;;;;5090596;28;19928;-60
2022/09/05 12:32:24;;;;;;;;;;;25.70;92.60;;;;;;5091795;28;20373;-60
2022/09/05 12:35:17;;;;;;;;;;;26.50;92.00;;;;;;5082046;28;20295;-62
2022/09/05 12:38:14;;;;;;;;;;;27.00;86.20;;;;;;5090106;28;19927;-59
2022/09/05 12:41:07;;;;;;;;;;;27.10;86.20;;;;;;5071996;28;19924;-59
2022/09/05 12:44:00;;;;;;;;;;;27.00;87.90;;;;;;5083518;28;19924;-62
2022/09/05 12:46:56;;;;;;;;;;;27.00;86.30;;;;;;5071768;28;19925;-64
2022/09/05 12:49:50;;;;;;;;;;;27.10;89.00;;;;;;5091988;28;20387;-64
2022/09/05 12:52:25;;;;;;;;;;;27.30;85.50;;;;;;5086150;28;19940;-65
2022/09/05 12:54:57;;;;;;;;;;;27.40;86.20;;;;;;5112375;28;20303;-64
2022/09/05 12:57:28;;;;;;;;;;;27.20;85.20;;;;;;5110243;28;19923;-65
2022/09/05 13:00:22;;;;;;;;;;;26.90;87.00;;;;;;5076612;28;20192;-64
2022/09/05 13:03:26;;;;;;;;;;;27.00;86.60;;;;;;5091275;28;19935;-64
2022/09/05 13:06:03;;;;;;;;;;;27.10;85.20;;;;;;5092039;28;19928;-64
2022/09/05 13:08:42;;;;;;;;;;;27.00;84.70;;;;;;5091578;28;20296;-63
2022/09/05 13:11:11;;;;;;;;;;;26.70;85.10;;;;;;5091631;28;19924;-60
2022/09/05 13:14:04;;;;;;;;;;;26.30;87.10;;;;;;5089300;28;20082;-61
2022/09/05 13:16:53;;;;;;;;;;;26.00;87.80;;;;;;5073538;28;19939;-61
2022/09/05 13:19:28;;;;;;;;;;;25.70;88.40;;;;;;5088796;28;19932;-62
2022/09/05 13:21:57;;;;;;;;;;;25.40;87.30;;;;;;5091426;28;19924;-63
2022/09/05 13:24:31;;;;;;;;;;;25.10;87.90;;;;;;5089521;28;19931;-62
2022/09/05 13:27:07;;;;;;;;;;;24.70;87.40;;;;;;5075402;28;19924;-62
2022/09/05 13:29:52;;;;;;;;;;;24.50;90.10;;;;;;5081930;28;19925;-59
2022/09/05 13:32:48;;;;;;;;;;;24.20;90.10;;;;;;5083828;28;19929;-64
2022/09/05 13:35:41;;;;;;;;;;;24.10;91.00;;;;;;5091226;28;19924;-63
2022/09/05 13:38:46;;;;;;;;;;;23.90;91.40;;;;;;5101516;28;19928;-63
2022/09/05 13:41:20;;;;;;;;;;;23.90;91.40;;;;;;5111560;28;19927;-63
2022/09/05 13:43:55;;;;;;;;;;;23.70;89.20;;;;;;5093814;28;19924;-64
2022/09/05 13:46:52;;;;;;;;;;;23.60;90.30;;;;;;5076880;28;20319;-62
2022/09/05 13:49:27;;;;;;;;;;;23.50;91.00;;;;;;5087655;28;19924;-59
2022/09/05 13:52:17;;;;;;;;;;;23.50;92.10;;;;;;5091085;28;19924;-58
2022/09/05 13:54:46;;;;;;;;;;;23.50;91.00;;;;;;5073869;28;19924;-62
2022/09/05 13:57:17;;;;;;;;;;;23.50;91.00;;;;;;5080006;28;20294;-61
2022/09/05 14:00:05;;;;;;;;;;;23.40;91.90;;;;;;5083269;28;19928;-62
2022/09/05 14:02:43;;;;;;;;;;;23.30;91.40;;;;;;5074414;28;19946;-58
2022/09/05 14:05:31;;;;;;;;;;;23.20;91.40;;;;;;5071763;28;20380;-58
2022/09/05 14:08:16;;;;;;;;;;;23.10;91.60;;;;;;5073701;28;19924;-63
2022/09/05 14:10:53;;;;;;;;;;;23.00;92.00;;;;;;5078688;28;19924;-59
2022/09/05 14:13:24;;;;;;;;;;;23.00;92.00;;;;;;5081387;28;19931;-65
2022/09/05 14:15:54;;;;;;;;;;;23.00;92.10;;;;;;5074120;28;19932;-63
2022/09/05 14:18:25;;;;;;;;;;;23.00;92.50;;;;;;5085512;28;20442;-59
2022/09/05 14:21:14;;;;;;;;;;;23.00;92.10;;;;;;5071034;28;19924;-62
2022/09/05 14:23:45;;;;;;;;;;;22.90;92.60;;;;;;5072373;28;19928;-58
2022/09/05 14:26:38;;;;;;;;;;;22.80;93.00;;;;;;5069815;28;19939;-61
2022/09/05 14:29:15;;;;;;;;;;;22.70;92.80;;;;;;5089177;28;19943;-59
2022/09/05 14:31:46;;;;;;;;;;;22.70;93.30;;;;;;5071354;28;19939;-59
2022/09/05 14:34:52;;;;;;;;;;;22.60;93.70;;;;;;5089817;28;19924;-59
2022/09/05 14:37:43;;;;;;;;;;;22.60;94.20;;;;;;5083279;28;19928;-62
2022/09/05 14:40:41;;;;;;;;;;;22.50;93.10;;;;;;5094731;28;19928;-62
2022/09/05 14:43:09;;;;;;;;;;;22.40;93.50;;;;;;5078969;28;20296;-59
2022/09/05 14:45:43;;;;;;;;;;;22.30;93.90;;;;;;5079930;28;19924;-61
2022/09/05 14:48:15;;;;;;;;;;;22.10;94.10;;;;;;5093849;28;19928;-60
2022/09/05 14:50:59;;;;;;;;;;;21.90;94.00;;;;;;5108927;28;20438;-59
2022/09/05 14:53:28;;;;;;;;;;;21.80;94.20;;;;;;5094687;28;19924;-60
2022/09/05 14:56:18;;;;;;;;;;;21.70;95.80;;;;;;5088401;28;19924;-62
2022/09/05 14:59:14;;;;;;;;;;;21.30;96.70;;;;;;5080589;28;19925;-60
2022/09/05 15:02:02;;;;;;;;;;;20.90;98.00;;;;;;5086974;28;19932;-60
2022/09/05 15:04:57;;;;;;;;;;;20.60;99.70;;;;;;5069181;28;19924;-59
2022/09/05 15:07:35;;;;;;;;;;;20.40;99.90;;;;;;5071689;28;19924;-60
2022/09/05 15:10:18;;;;;;;;;;;20.30;99.90;;;;;;5082100;28;20383;-61
2022/09/05 15:13:09;;;;;;;;;;;20.20;99.90;;;;;;5075464;28;19928;-64
2022/09/05 15:15:38;;;;;;;;;;;20.20;99.90;;;;;;5071583;28;19931;-63
2022/09/05 15:18:24;;;;;;;;;;;20.20;99.90;;;;;;5088819;28;19931;-61
2022/09/05 15:20:58;;;;;;;;;;;20.20;99.90;;;;;;5083823;28;19925;-60
2022/09/05 15:23:28;;;;;;;;;;;20.10;99.90;;;;;;5071913;28;19932;-63
2022/09/05 15:25:58;;;;;;;;;;;20.10;99.90;;;;;;5074776;28;19928;-60
2022/09/05 15:28:34;;;;;;;;;;;20.00;99.90;;;;;;5092884;28;19924;-62
2022/09/05 15:31:05;;;;;;;;;;;20.00;99.90;;;;;;5087867;28;19932;-63
2022/09/05 15:33:34;;;;;;;;;;;20.00;99.90;;;;;;5088490;28;19924;-60
2022/09/05 15:36:02;;;;;;;;;;;19.90;99.90;;;;;;5077858;28;19932;-61
2022/09/05 15:38:30;;;;;;;;;;;20.00;99.90;;;;;;5084042;28;19924;-64
2022/09/05 15:41:20;;;;;;;;;;;19.90;99.90;;;;;;5069001;28;19935;-65
2022/09/05 15:43:50;;;;;;;;;;;19.90;99.90;;;;;;5081578;28;19924;-64